Aeroporto :
LOGIN :

Iscrizione | Disclaimer

   EN    FR    IT 

 










Sommario :    VFR   VFR Marginale   IFR   IFR Intensivo   IFR Molto Intensivo
Visibilità : 
Base nubi : 
>= 8 km
>= 3000ft
5 / 8 km
1000 / 3000 ft
1500m / 5 km
500 / 1000 ft
800 / 1500m
200 / 500 ft
< 800m
< 200 ft
Simboli :   Temporali  Nebbia  Neve Forte  Precipitazioni Forti  Vento > 20 kt
SIGMETs :   Varie  Temporali  Ghiacco  Turbolenza  Onda orograficha  Ceneri Vulcaniche






- Altitudine del aeroporto : 24 ft
- Codice IATA : SGD


EKSB - Sonderborg

ULTIMO METAR :
  • 261650Z AUTO 17004KT 130V210 9999NDV BKN033/// 17/11 Q1034

METARs OBSOLETI :
  • 261620Z AUTO 14004KT 110V170 9999NDV BKN035/// BKN160/// 17/12 Q1034
  • 261550Z AUTO 06002KT 9999NDV BKN030/// 18/12 Q1034
  • 261520Z AUTO 07002KT 9999NDV BKN029/// 17/11 Q1034
  • 261450Z AUTO 06002KT 9999NDV SCT029/// 18/11 Q1034
  • 261420Z AUTO 02002KT 9999NDV BKN029/// 19/11 Q1034

Previsioni scadute.



MetMap, La meteo Aeronautica in un colpo d'occhio ! - Copyright ORBIFLY Dicembre 2007 - Disclaimer

ORBIFLY MET'MAP TEAM :

Programmazione e sviluppo : Alexandra Zaïnal
Concezione : Baudouin d'Aumeries
Aiuto per la programmazione : Marc-Olivier Méhu
Supporto tecnico e logistico : Manuel Goepfert
Aiuto per la traduzione : Arnaldo La Scala

Contatto : metmap@orbifly.com




FONTI E CREDITI :

   NOAA